createdAt,value
2018-09-18T00:00:11.128Z,6.97
2018-09-18T00:02:38.944Z,6.25
2018-09-18T00:05:07.108Z,6.78
2018-09-18T00:07:35.061Z,6.60
2018-09-18T00:10:02.962Z,6.62
2018-09-18T00:12:32.054Z,6.60
2018-09-18T00:14:59.993Z,6.83
2018-09-18T00:17:28.660Z,6.80
2018-09-18T00:19:57.335Z,6.85
2018-09-18T00:22:25.717Z,6.80
2018-09-18T00:24:55.128Z,7.10
2018-09-18T00:27:22.913Z,7.97
2018-09-18T00:29:51.474Z,6.55
2018-09-18T00:32:20.056Z,7.00
2018-09-18T00:34:48.949Z,6.78
2018-09-18T00:37:16.789Z,6.87
2018-09-18T00:39:44.916Z,3.72
2018-09-18T00:42:13.498Z,3.60
2018-09-18T00:44:42.079Z,2.80
2018-09-18T00:47:10.218Z,2.47
2018-09-18T00:49:38.112Z,2.50
2018-09-18T00:52:08.121Z,2.87
2018-09-18T00:54:35.888Z,2.22
2018-09-18T00:57:04.208Z,2.52
2018-09-18T00:59:32.037Z,2.70
2018-09-18T01:01:59.857Z,2.58
2018-09-18T01:04:28.195Z,2.60
2018-09-18T01:06:56.112Z,2.50
2018-09-18T01:09:24.266Z,2.67
2018-09-18T01:11:53.039Z,3.05
2018-09-18T01:14:22.509Z,3.90
2018-09-18T01:16:50.456Z,4.00
2018-09-18T01:19:18.268Z,4.25
2018-09-18T01:21:46.401Z,4.70
2018-09-18T01:24:14.276Z,4.70
2018-09-18T01:26:45.858Z,4.70
2018-09-18T01:29:13.744Z,4.08
2018-09-18T01:31:41.595Z,3.62
2018-09-18T01:34:09.382Z,4.00
2018-09-18T01:36:37.187Z,2.60
2018-09-18T01:39:07.791Z,2.62
2018-09-18T01:41:35.633Z,2.70
2018-09-18T01:44:03.956Z,2.30
2018-09-18T01:46:31.824Z,2.70
2018-09-18T01:48:59.827Z,2.85
2018-09-18T01:51:28.468Z,2.70
2018-09-18T01:53:56.628Z,2.90
2018-09-18T01:56:24.656Z,2.58
2018-09-18T01:58:53.495Z,2.95
2018-09-18T02:01:21.309Z,2.87
2018-09-18T02:03:49.229Z,2.70
2018-09-18T02:06:17.104Z,2.50
2018-09-18T02:08:46.099Z,2.87
2018-09-18T02:11:14.984Z,2.92
2018-09-18T02:13:43.084Z,2.80
2018-09-18T02:16:11.065Z,2.40
2018-09-18T02:18:39.161Z,3.12
2018-09-18T02:21:08.350Z,3.17
2018-09-18T02:23:36.170Z,3.70
2018-09-18T02:26:04.588Z,3.60
2018-09-18T02:28:32.575Z,3.42
2018-09-18T02:31:09.215Z,3.22
2018-09-18T02:33:36.976Z,3.75
2018-09-18T02:36:05.197Z,3.52
2018-09-18T02:38:33.683Z,3.40
2018-09-18T02:41:01.680Z,2.90
2018-09-18T02:43:30.187Z,2.83
2018-09-18T02:45:58.009Z,2.58
2018-09-18T02:48:25.899Z,2.72
2018-09-18T02:50:53.708Z,2.55
2018-09-18T02:53:22.339Z,2.52
2018-09-18T02:55:50.211Z,2.80
2018-09-18T02:58:18.046Z,3.00
2018-09-18T03:00:46.869Z,2.47
2018-09-18T03:03:14.674Z,2.60
2018-09-18T03:05:42.461Z,2.35
2018-09-18T03:08:10.423Z,3.00
2018-09-18T03:10:38.291Z,2.80
2018-09-18T03:13:06.368Z,2.90
2018-09-18T03:15:34.118Z,2.70
2018-09-18T03:18:02.473Z,2.70
2018-09-18T03:20:31.156Z,2.70
2018-09-18T03:22:59.012Z,2.62
2018-09-18T03:25:28.048Z,2.58
2018-09-18T03:27:55.891Z,2.83
2018-09-18T03:30:24.225Z,2.60
2018-09-18T03:32:53.890Z,2.80
2018-09-18T03:35:21.650Z,3.12
2018-09-18T03:37:50.225Z,2.55
2018-09-18T03:40:18.351Z,2.60
2018-09-18T03:42:46.940Z,2.65
2018-09-18T03:45:14.730Z,2.58
2018-09-18T03:47:42.501Z,2.47
2018-09-18T03:50:10.427Z,3.15
2018-09-18T03:52:38.291Z,2.85
2018-09-18T03:55:09.192Z,3.10
2018-09-18T03:57:37.014Z,2.15
2018-09-18T04:00:04.941Z,3.02
2018-09-18T04:02:33.117Z,2.30
2018-09-18T04:05:01.720Z,2.65
2018-09-18T04:07:30.244Z,3.10
2018-09-18T04:09:58.471Z,1.82
2018-09-18T04:12:27.243Z,2.87
2018-09-18T04:14:55.141Z,2.80
2018-09-18T04:17:23.329Z,2.60
2018-09-18T04:19:52.736Z,2.45
2018-09-18T04:22:21.417Z,2.70
2018-09-18T04:24:49.874Z,2.00
2018-09-18T04:27:18.908Z,2.30
2018-09-18T04:29:47.824Z,2.83
2018-09-18T04:32:15.570Z,2.65
2018-09-18T04:34:44.086Z,1.95
2018-09-18T04:37:12.564Z,2.98
2018-09-18T04:39:40.423Z,1.65
2018-09-18T04:42:08.294Z,3.10
2018-09-18T04:44:36.773Z,2.80
2018-09-18T04:47:04.652Z,2.85
2018-09-18T04:49:33.131Z,3.02
2018-09-18T04:52:00.949Z,2.55
2018-09-18T04:54:29.729Z,1.85
2018-09-18T04:56:58.259Z,1.45
2018-09-18T04:59:26.080Z,2.27
2018-09-18T05:01:53.907Z,1.37
2018-09-18T05:04:22.121Z,2.00
2018-09-18T05:06:50.877Z,2.17
2018-09-18T05:09:18.741Z,2.67
2018-09-18T05:11:46.540Z,2.08
2018-09-18T05:14:14.455Z,2.70
2018-09-18T05:16:42.338Z,2.77
2018-09-18T05:19:10.700Z,2.35
2018-09-18T05:21:43.488Z,2.47
2018-09-18T05:24:11.943Z,2.77
2018-09-18T05:26:40.170Z,1.82
2018-09-18T05:29:09.028Z,1.90
2018-09-18T05:31:36.910Z,2.20
2018-09-18T05:34:06.054Z,1.60
2018-09-18T05:36:33.853Z,2.58
2018-09-18T05:39:01.683Z,3.20
2018-09-18T05:41:29.709Z,2.12
2018-09-18T05:43:57.684Z,2.77
2018-09-18T05:46:25.622Z,2.58
2018-09-18T05:48:53.505Z,2.80
2018-09-18T05:51:22.028Z,1.37
2018-09-18T05:53:51.607Z,2.75
2018-09-18T05:56:19.902Z,2.08
2018-09-18T05:58:48.550Z,2.22
2018-09-18T06:01:20.064Z,1.65
2018-09-18T06:03:48.184Z,2.33
2018-09-18T06:06:16.841Z,2.52
2018-09-18T06:08:45.514Z,2.55
2018-09-18T06:11:13.589Z,1.95
2018-09-18T06:13:41.420Z,2.05
2018-09-18T06:16:09.630Z,1.77
2018-09-18T06:18:37.623Z,1.87
2018-09-18T06:21:06.854Z,1.42
2018-09-18T06:23:35.443Z,1.85
2018-09-18T06:26:05.946Z,1.70
2018-09-18T06:28:33.802Z,2.10
2018-09-18T06:31:01.714Z,2.72
2018-09-18T06:33:30.110Z,2.75
2018-09-18T06:35:59.372Z,2.25
2018-09-18T06:38:27.205Z,1.42
2018-09-18T06:40:55.571Z,1.87
2018-09-18T06:43:23.352Z,1.90
2018-09-18T06:45:51.243Z,1.70
2018-09-18T06:48:20.607Z,1.95
2018-09-18T06:50:48.431Z,2.05
2018-09-18T06:53:16.726Z,2.08
2018-09-18T06:55:44.800Z,1.42
2018-09-18T06:58:13.306Z,2.27
2018-09-18T07:00:41.201Z,3.20
2018-09-18T07:03:10.009Z,2.58
2018-09-18T07:05:37.835Z,2.58
2018-09-18T07:08:06.197Z,3.37
2018-09-18T07:10:34.280Z,1.30
2018-09-18T07:13:02.765Z,2.02
2018-09-18T07:15:34.999Z,2.47
2018-09-18T07:18:04.208Z,3.10
2018-09-18T07:20:33.334Z,2.72
2018-09-18T07:23:01.083Z,2.45
2018-09-18T07:25:29.574Z,3.90
2018-09-18T07:27:57.349Z,3.08
2018-09-18T07:30:25.148Z,3.25
2018-09-18T07:32:57.405Z,2.77
2018-09-18T07:35:25.633Z,3.37
2018-09-18T07:40:31.978Z,3.45
2018-09-18T07:42:59.852Z,3.50
2018-09-18T07:45:27.803Z,3.95
2018-09-18T07:47:57.898Z,3.12
2018-09-18T07:50:26.286Z,3.27
2018-09-18T07:52:54.104Z,4.85
2018-09-18T07:55:21.888Z,3.47
2018-09-18T07:57:49.938Z,5.08
2018-09-18T08:00:18.372Z,5.15
2018-09-18T08:02:48.712Z,2.85
2018-09-18T08:05:16.925Z,2.67
2018-09-18T08:07:45.106Z,4.95
2018-09-18T08:10:13.768Z,4.40
2018-09-18T08:12:42.350Z,4.15
2018-09-18T08:15:11.132Z,3.05
2018-09-18T08:17:38.987Z,4.37
2018-09-18T08:20:07.316Z,3.58
2018-09-18T08:22:35.562Z,3.60
2018-09-18T08:25:03.955Z,4.40
2018-09-18T08:27:32.458Z,5.03
2018-09-18T08:30:00.963Z,3.65
2018-09-18T08:32:28.807Z,2.90
2018-09-18T08:34:56.595Z,2.08
2018-09-18T08:37:25.730Z,3.92
2018-09-18T08:39:53.489Z,3.98
2018-09-18T08:42:23.827Z,4.42
2018-09-18T08:44:53.057Z,3.30
2018-09-18T08:47:21.525Z,2.90
2018-09-18T08:49:49.440Z,3.20
2018-09-18T08:52:17.302Z,3.08
2018-09-18T08:54:45.969Z,3.02
2018-09-18T08:57:14.091Z,3.05
2018-09-18T08:59:42.332Z,3.17
2018-09-18T09:02:10.564Z,4.30
2018-09-18T09:04:39.845Z,3.02
2018-09-18T09:07:07.529Z,4.25
2018-09-18T09:09:35.425Z,2.58
2018-09-18T09:12:05.675Z,3.40
2018-09-18T09:14:33.488Z,3.85
2018-09-18T09:17:01.523Z,3.58
2018-09-18T09:19:30.375Z,2.37
2018-09-18T09:21:58.814Z,5.12
2018-09-18T09:24:27.415Z,4.92
2018-09-18T09:26:55.269Z,3.70
2018-09-18T09:29:23.060Z,5.22
2018-09-18T09:31:51.275Z,4.53
2018-09-18T09:34:19.004Z,4.37
2018-09-18T09:36:47.788Z,4.30
2018-09-18T09:39:16.323Z,2.80
2018-09-18T09:41:44.338Z,3.90
2018-09-18T09:44:13.003Z,3.95
2018-09-18T09:46:40.857Z,4.10
2018-09-18T09:49:08.636Z,2.42
2018-09-18T09:51:36.410Z,2.83
2018-09-18T09:54:04.670Z,4.78
2018-09-18T09:56:32.487Z,3.55
2018-09-18T09:59:00.774Z,3.15
2018-09-18T10:01:34.659Z,3.72
2018-09-18T10:04:03.490Z,3.33
2018-09-18T10:06:31.769Z,4.55
2018-09-18T10:08:59.552Z,4.05
2018-09-18T10:11:27.382Z,4.20
2018-09-18T10:13:56.143Z,3.80
2018-09-18T10:16:24.158Z,3.65
2018-09-18T10:18:56.452Z,2.87
2018-09-18T10:21:24.268Z,4.45
2018-09-18T10:23:52.865Z,4.50
2018-09-18T10:26:21.657Z,3.80
2018-09-18T10:28:49.874Z,4.25
2018-09-18T10:31:21.163Z,2.47
2018-09-18T10:33:48.900Z,3.77
2018-09-18T10:36:16.749Z,4.40
2018-09-18T10:38:45.258Z,4.22
2018-09-18T10:41:13.340Z,3.72
2018-09-18T10:43:41.033Z,4.03
2018-09-18T10:46:08.761Z,3.35
2018-09-18T10:48:42.297Z,3.95
2018-09-18T10:51:10.099Z,4.10
2018-09-18T10:53:38.165Z,3.60
2018-09-18T10:56:06.035Z,1.77
2018-09-18T10:58:33.810Z,3.25
2018-09-18T11:01:03.752Z,3.22
2018-09-18T11:03:31.503Z,3.22
2018-09-18T11:05:59.328Z,2.62
2018-09-18T11:08:27.187Z,3.00
2018-09-18T11:10:55.483Z,3.52
2018-09-18T11:13:23.331Z,2.55
2018-09-18T11:15:52.913Z,2.35
2018-09-18T11:18:21.287Z,2.27
2018-09-18T11:20:49.105Z,2.67
2018-09-18T11:23:17.892Z,2.60
2018-09-18T11:25:46.381Z,2.85
2018-09-18T11:28:15.953Z,3.02
2018-09-18T11:30:47.025Z,2.15
2018-09-18T11:33:15.900Z,2.52
2018-09-18T11:35:46.999Z,2.17
2018-09-18T11:38:15.725Z,2.27
2018-09-18T11:40:44.355Z,3.10
2018-09-18T11:43:12.724Z,2.72
2018-09-18T11:45:42.000Z,2.47
2018-09-18T11:48:09.845Z,1.85
2018-09-18T11:50:37.628Z,2.60
2018-09-18T11:53:06.021Z,2.22
2018-09-18T11:55:34.373Z,2.75
2018-09-18T11:58:02.570Z,2.20
2018-09-18T12:00:30.963Z,2.02
2018-09-18T12:02:59.603Z,2.62
2018-09-18T12:05:28.741Z,2.80
2018-09-18T12:07:57.333Z,2.45
2018-09-18T12:10:25.193Z,2.33
2018-09-18T12:12:54.072Z,3.02
2018-09-18T12:15:24.498Z,2.00
2018-09-18T12:17:54.173Z,3.30
2018-09-18T12:20:22.373Z,2.92
2018-09-18T12:22:54.235Z,2.50
2018-09-18T12:25:22.237Z,2.35
2018-09-18T12:27:50.442Z,2.40
2018-09-18T12:30:18.606Z,2.30
2018-09-18T12:32:48.662Z,2.70
2018-09-18T12:35:17.373Z,1.95
2018-09-18T12:37:45.992Z,2.70
2018-09-18T12:40:13.861Z,2.70
2018-09-18T12:42:44.005Z,3.02
2018-09-18T12:45:11.779Z,3.17
2018-09-18T12:47:46.864Z,3.12
2018-09-18T12:50:14.963Z,2.90
2018-09-18T12:52:42.731Z,2.58
2018-09-18T12:55:10.536Z,3.00
2018-09-18T12:57:38.480Z,2.65
2018-09-18T13:00:07.458Z,3.10
2018-09-18T13:02:36.422Z,1.95
2018-09-18T13:05:08.267Z,3.10
2018-09-18T13:07:36.958Z,3.12
2018-09-18T13:12:37.819Z,2.42
2018-09-18T13:15:07.190Z,3.15
2018-09-18T13:17:36.262Z,2.77
2018-09-18T13:20:04.580Z,2.35
2018-09-18T13:22:34.048Z,2.83
2018-09-18T13:25:02.934Z,3.17
2018-09-18T13:27:31.528Z,2.60
2018-09-18T13:30:01.089Z,2.65
2018-09-18T13:32:29.623Z,3.10
2018-09-18T13:34:57.474Z,2.92
2018-09-18T13:37:25.236Z,3.40
2018-09-18T13:39:53.615Z,3.20
2018-09-18T13:42:21.457Z,2.75
2018-09-18T13:44:49.881Z,2.37
2018-09-18T13:47:17.716Z,2.47
2018-09-18T13:49:46.042Z,3.05
2018-09-18T13:52:13.885Z,2.92
2018-09-18T13:54:41.796Z,2.80
2018-09-18T13:57:09.682Z,2.40
2018-09-18T13:59:37.672Z,2.70
2018-09-18T14:02:06.295Z,2.80
2018-09-18T14:04:34.469Z,2.67
2018-09-18T14:07:04.758Z,2.52
2018-09-18T14:09:34.954Z,2.58
2018-09-18T14:12:03.513Z,2.47
2018-09-18T14:14:31.469Z,2.50
2018-09-18T14:16:59.353Z,3.00
2018-09-18T14:19:31.411Z,2.72
2018-09-18T14:21:59.145Z,2.67
2018-09-18T14:24:27.866Z,2.67
2018-09-18T14:26:55.782Z,2.55
2018-09-18T14:29:23.641Z,1.87
2018-09-18T14:31:51.629Z,2.22
2018-09-18T14:34:20.707Z,2.17
2018-09-18T14:36:48.916Z,1.75
2018-09-18T14:39:17.401Z,2.80
2018-09-18T14:41:45.345Z,2.60
2018-09-18T14:44:14.113Z,2.10
2018-09-18T14:46:42.869Z,2.15
2018-09-18T14:49:13.536Z,2.67
2018-09-18T14:51:42.226Z,1.50
2018-09-18T14:54:12.281Z,2.70
2018-09-18T14:56:41.228Z,2.90
2018-09-18T14:59:13.519Z,2.75
2018-09-18T15:01:42.454Z,2.52
2018-09-18T15:04:11.983Z,3.05
2018-09-18T15:06:39.757Z,3.15
2018-09-18T15:09:09.490Z,2.90
2018-09-18T15:11:38.052Z,2.22
2018-09-18T15:14:07.973Z,2.60
2018-09-18T15:16:36.057Z,3.20
2018-09-18T15:19:11.870Z,3.15
2018-09-18T15:21:39.922Z,3.25
2018-09-18T15:24:08.915Z,3.42
2018-09-18T15:26:37.802Z,3.67
2018-09-18T15:29:06.614Z,3.30
2018-09-18T15:31:36.014Z,3.98
2018-09-18T15:34:04.188Z,2.42
2018-09-18T15:36:33.145Z,3.30
2018-09-18T15:39:02.023Z,4.12
2018-09-18T15:41:34.553Z,3.85
2018-09-18T15:44:03.164Z,3.60
2018-09-18T15:46:32.618Z,3.92
2018-09-18T15:49:01.196Z,3.85
2018-09-18T15:51:29.742Z,2.85
2018-09-18T15:53:58.222Z,2.50
2018-09-18T15:56:27.129Z,2.70
2018-09-18T15:58:55.044Z,3.42
2018-09-18T16:01:24.138Z,3.00
2018-09-18T16:03:52.148Z,3.47
2018-09-18T16:06:20.602Z,2.90
2018-09-18T16:08:48.480Z,3.17
2018-09-18T16:11:18.570Z,2.83
2018-09-18T16:13:47.214Z,2.92
2018-09-18T16:16:15.048Z,3.70
2018-09-18T16:18:43.472Z,3.22
2018-09-18T16:21:11.723Z,3.08
2018-09-18T16:23:39.512Z,3.10
2018-09-18T16:26:07.349Z,2.35
2018-09-18T16:28:35.144Z,2.95
2018-09-18T16:31:03.002Z,2.83
2018-09-18T16:33:30.768Z,2.85
2018-09-18T16:35:58.529Z,2.98
2018-09-18T16:38:26.524Z,3.40
2018-09-18T16:40:54.343Z,3.20
2018-09-18T16:43:22.198Z,2.87
2018-09-18T16:45:49.940Z,2.90
2018-09-18T16:48:17.724Z,3.20
2018-09-18T16:50:45.491Z,2.92
2018-09-18T16:53:13.666Z,2.45
2018-09-18T16:55:42.716Z,2.98
2018-09-18T16:58:11.324Z,3.33
2018-09-18T17:00:40.176Z,2.80
2018-09-18T17:03:09.330Z,2.72
2018-09-18T17:05:37.252Z,3.12
2018-09-18T17:08:07.109Z,2.90
2018-09-18T17:10:35.014Z,2.80
2018-09-18T17:13:03.621Z,3.40
2018-09-18T17:15:32.252Z,2.90
2018-09-18T17:18:01.738Z,3.10
2018-09-18T17:20:31.618Z,3.05
2018-09-18T17:23:00.625Z,3.30
2018-09-18T17:25:29.361Z,3.20
2018-09-18T17:27:57.466Z,3.08
2018-09-18T17:30:25.814Z,3.35
2018-09-18T17:32:53.624Z,3.30
2018-09-18T17:35:23.225Z,3.08
2018-09-18T17:37:54.561Z,2.83
2018-09-18T17:40:24.072Z,2.70
2018-09-18T17:42:53.095Z,3.52
2018-09-18T17:45:22.026Z,3.22
2018-09-18T17:47:51.379Z,2.40
2018-09-18T17:50:20.252Z,3.08
2018-09-18T17:52:48.672Z,2.58
2018-09-18T17:55:17.301Z,3.00
2018-09-18T17:57:46.819Z,2.80
2018-09-18T18:00:15.410Z,2.85
2018-09-18T18:02:44.275Z,3.30
2018-09-18T18:05:14.942Z,3.30
2018-09-18T18:07:50.936Z,2.17
2018-09-18T18:10:19.870Z,2.70
2018-09-18T18:12:48.871Z,2.33
2018-09-18T18:15:16.991Z,1.87
2018-09-18T18:17:45.861Z,3.12
2018-09-18T18:20:17.795Z,2.33
2018-09-18T18:22:46.327Z,3.05
2018-09-18T18:25:14.212Z,2.70
2018-09-18T18:27:46.169Z,2.80
2018-09-18T18:30:14.980Z,2.83
2018-09-18T18:32:44.317Z,2.75
2018-09-18T18:35:12.716Z,3.17
2018-09-18T18:37:41.617Z,2.60
2018-09-18T18:40:10.223Z,3.10
2018-09-18T18:42:38.266Z,1.92
2018-09-18T18:45:07.845Z,2.42
2018-09-18T18:47:36.776Z,2.60
2018-09-18T18:50:04.622Z,2.60
2018-09-18T18:52:35.798Z,2.60
2018-09-18T18:55:04.880Z,3.00
2018-09-18T18:57:33.693Z,2.80
2018-09-18T19:00:02.091Z,2.50
2018-09-18T19:02:30.424Z,2.77
2018-09-18T19:04:59.590Z,2.47
2018-09-18T19:07:27.399Z,2.47
2018-09-18T19:09:55.683Z,2.72
2018-09-18T19:12:24.482Z,2.60
2018-09-18T19:14:52.336Z,2.58
2018-09-18T19:17:20.833Z,3.30
2018-09-18T19:20:03.146Z,2.58
2018-09-18T19:22:31.003Z,2.52
2018-09-18T19:25:02.002Z,2.20
2018-09-18T19:27:32.249Z,2.65
2018-09-18T19:30:06.336Z,2.60
2018-09-18T19:32:38.489Z,2.77
2018-09-18T19:35:07.771Z,2.58
2018-09-18T19:37:37.149Z,2.52
2018-09-18T19:40:06.557Z,2.90
2018-09-18T19:42:35.038Z,2.17
2018-09-18T19:45:03.425Z,2.70
2018-09-18T19:47:32.210Z,1.98
2018-09-18T19:50:02.816Z,2.37
2018-09-18T19:52:32.481Z,2.70
2018-09-18T19:55:00.774Z,2.75
2018-09-18T19:57:29.421Z,2.17
2018-09-18T19:59:58.083Z,2.35
2018-09-18T20:02:26.631Z,2.37
2018-09-18T20:04:54.888Z,2.65
2018-09-18T20:07:23.138Z,2.77
2018-09-18T20:09:53.088Z,2.60
2018-09-18T20:12:22.407Z,2.30
2018-09-18T20:14:50.994Z,2.58
2018-09-18T20:17:20.810Z,2.25
2018-09-18T20:19:48.707Z,2.62
2018-09-18T20:22:18.612Z,2.85
2018-09-18T20:24:49.355Z,2.45
2018-09-18T20:27:18.165Z,2.25
2018-09-18T20:29:46.286Z,2.47
2018-09-18T20:32:14.690Z,2.60
2018-09-18T20:34:42.745Z,2.50
2018-09-18T20:37:11.350Z,2.25
2018-09-18T20:39:39.258Z,2.20
2018-09-18T20:42:09.636Z,2.35
2018-09-18T20:44:39.033Z,2.58
2018-09-18T20:47:07.370Z,2.22
2018-09-18T20:49:36.180Z,2.42
2018-09-18T20:52:04.669Z,2.80
2018-09-18T20:54:32.500Z,2.72
2018-09-18T20:57:00.543Z,2.37
2018-09-18T20:59:28.345Z,2.87
2018-09-18T21:01:56.175Z,2.60
2018-09-18T21:04:23.998Z,2.72
2018-09-18T21:06:51.826Z,2.62
2018-09-18T21:09:30.136Z,2.60
2018-09-18T21:12:01.599Z,3.00
2018-09-18T21:14:30.821Z,3.08
2018-09-18T21:16:58.984Z,3.17
2018-09-18T21:19:28.006Z,2.80
2018-09-18T21:21:55.941Z,2.70
2018-09-18T21:24:24.154Z,2.33
2018-09-18T21:26:52.078Z,2.90
2018-09-18T21:29:20.315Z,2.52
2018-09-18T21:31:48.124Z,2.80
2018-09-18T21:34:15.942Z,2.77
2018-09-18T21:36:43.850Z,2.83
2018-09-18T21:39:12.825Z,2.33
2018-09-18T21:41:41.190Z,2.95
2018-09-18T21:44:08.954Z,3.15
2018-09-18T21:46:36.717Z,2.30
2018-09-18T21:49:06.738Z,2.55
2018-09-18T21:51:34.467Z,3.20
2018-09-18T21:54:03.519Z,2.70
2018-09-18T21:56:31.362Z,2.05
2018-09-18T21:58:59.291Z,2.20
2018-09-18T22:01:27.808Z,2.22
2018-09-18T22:03:55.588Z,2.15
2018-09-18T22:06:23.404Z,1.98
2018-09-18T22:08:51.681Z,2.02
2018-09-18T22:11:20.022Z,2.42
2018-09-18T22:13:47.770Z,2.10
2018-09-18T22:16:15.601Z,2.30
2018-09-18T22:18:43.497Z,2.08
2018-09-18T22:21:11.309Z,1.95
2018-09-18T22:23:39.312Z,1.80
2018-09-18T22:26:07.312Z,2.08
2018-09-18T22:28:35.151Z,1.50
2018-09-18T22:31:03.583Z,1.92
2018-09-18T22:33:31.302Z,1.98
2018-09-18T22:35:59.662Z,1.70
2018-09-18T22:38:28.374Z,1.75
2018-09-18T22:40:56.688Z,1.85
2018-09-18T22:43:24.466Z,2.02
2018-09-18T22:45:52.504Z,1.80
2018-09-18T22:48:21.119Z,2.40
2018-09-18T22:50:49.999Z,3.40
2018-09-18T22:53:17.766Z,3.72
2018-09-18T22:55:45.553Z,3.00
2018-09-18T22:58:13.269Z,2.40
2018-09-18T23:00:41.005Z,1.90
2018-09-18T23:03:08.793Z,2.10
2018-09-18T23:05:37.035Z,1.57
2018-09-18T23:08:05.789Z,2.08
2018-09-18T23:10:34.416Z,1.80
2018-09-18T23:13:03.584Z,1.90
2018-09-18T23:15:31.366Z,2.40
2018-09-18T23:18:00.342Z,1.62
2018-09-18T23:20:28.088Z,1.65
2018-09-18T23:22:55.837Z,1.87
2018-09-18T23:25:23.583Z,1.80
2018-09-18T23:27:52.288Z,1.70
2018-09-18T23:30:20.928Z,1.00
2018-09-18T23:32:48.704Z,2.15
2018-09-18T23:35:17.876Z,2.12
2018-09-18T23:37:45.614Z,2.30
2018-09-18T23:40:13.451Z,2.10
2018-09-18T23:42:41.264Z,1.45
2018-09-18T23:45:09.013Z,1.92
2018-09-18T23:47:36.776Z,1.92
2018-09-18T23:50:04.598Z,1.77
2018-09-18T23:52:32.364Z,2.25
2018-09-18T23:55:00.420Z,1.50
2018-09-18T23:57:28.223Z,1.90
2018-09-18T23:59:56.064Z,1.85
